Time;durP1;ratioP1;P1;durP2;ratioP2;P2;SDS_P1;SDS_P2;PMS_P1;PMS_P2;Temp;Humidity;BMP_temperature;BMP_pressure;BME280_temperature;BME280_humidity;BME280_pressure;Samples;Min_cycle;Max_cycle;Signal;HPM_P1;HPM_P2
2021/09/04 00:01:14;;;;;;;22.60;12.40;;;;;;;18.44;56.82;101844.84;5005788;28;114420;-75
2021/09/04 00:03:42;;;;;;;21.83;12.18;;;;;;;18.40;56.69;101849.56;4993388;28;114065;-74
2021/09/04 00:06:09;;;;;;;24.70;11.82;;;;;;;18.35;56.91;101851.66;4987217;28;122529;-75
2021/09/04 00:08:37;;;;;;;23.27;12.18;;;;;;;18.30;56.96;101840.34;5010544;28;123710;-75
2021/09/04 00:11:04;;;;;;;23.23;11.55;;;;;;;18.26;57.18;101841.50;5009962;28;114175;-75
2021/09/04 00:13:33;;;;;;;19.92;11.13;;;;;;;18.21;57.10;101848.94;4999257;28;113910;-75
2021/09/04 00:16:00;;;;;;;23.77;11.63;;;;;;;18.18;57.41;101838.44;5007689;28;124284;-75
2021/09/04 00:18:30;;;;;;;22.50;11.75;;;;;;;18.16;57.41;101840.31;4989187;28;122882;-75
2021/09/04 00:20:57;;;;;;;25.20;11.77;;;;;;;18.14;57.37;101847.59;5008664;28;114082;-75
2021/09/04 00:23:24;;;;;;;21.50;11.43;;;;;;;18.09;57.44;101838.00;5011075;28;114284;-74
2021/09/04 00:25:52;;;;;;;22.00;11.88;;;;;;;18.06;57.54;101834.66;4990232;28;123594;-75
2021/09/04 00:28:20;;;;;;;22.77;11.40;;;;;;;18.03;57.59;101834.88;5010147;28;123788;-74
2021/09/04 00:30:47;;;;;;;25.10;12.25;;;;;;;17.99;57.55;101834.19;5010689;28;115242;-74
2021/09/04 00:33:14;;;;;;;21.42;11.32;;;;;;;17.95;57.74;101827.28;5009750;28;113838;-75
2021/09/04 00:35:41;;;;;;;22.27;11.35;;;;;;;17.91;57.72;101825.72;4989452;28;122911;-75
2021/09/04 00:38:08;;;;;;;23.92;11.85;;;;;;;17.90;57.73;101826.69;5010398;28;123641;-75
2021/09/04 00:40:35;;;;;;;23.90;11.30;;;;;;;17.87;57.74;101830.41;5009483;28;115269;-74
2021/09/04 00:43:02;;;;;;;21.23;10.98;;;;;;;17.84;57.72;101829.72;5010885;28;113915;-75
2021/09/04 00:45:29;;;;;;;23.23;10.90;;;;;;;17.81;57.68;101827.22;4994198;28;122997;-74
2021/09/04 00:48:03;;;;;;;24.10;11.68;;;;;;;17.78;57.69;101824.69;4991269;28;122834;-75
2021/09/04 00:50:33;;;;;;;22.75;11.40;;;;;;;17.75;57.85;101830.25;4989806;28;113874;-75
2021/09/04 00:53:00;;;;;;;22.92;11.77;;;;;;;17.73;57.96;101832.19;5009463;28;114221;-74
2021/09/04 00:55:28;;;;;;;24.30;10.98;;;;;;;17.73;57.89;101834.84;4991611;28;123242;-74
2021/09/04 00:57:55;;;;;;;23.90;10.98;;;;;;;17.71;58.00;101827.75;5010647;28;124037;-75
2021/09/04 01:00:23;;;;;;;24.08;11.10;;;;;;;17.68;57.98;101825.25;5007119;28;114359;-74
2021/09/04 01:02:50;;;;;;;22.63;11.50;;;;;;;17.66;57.99;101827.16;5007863;28;113968;-74
2021/09/04 01:05:21;;;;;;;21.63;11.68;;;;;;;17.60;57.84;101819.50;4984649;28;122655;-72
2021/09/04 01:07:48;;;;;;;22.13;11.57;;;;;;;17.58;57.93;101823.22;4989426;28;123395;-73
2021/09/04 01:10:15;;;;;;;22.42;11.23;;;;;;;17.52;57.96;101813.75;5009258;28;114994;-73
2021/09/04 01:12:42;;;;;;;22.73;10.77;;;;;;;17.50;58.17;101821.00;5008641;28;114208;-73
2021/09/04 01:15:10;;;;;;;19.75;11.13;;;;;;;17.48;58.13;101817.56;5010101;28;124707;-73
2021/09/04 01:17:37;;;;;;;20.33;10.18;;;;;;;17.45;58.34;101820.41;5009923;28;123611;-73
2021/09/04 01:20:06;;;;;;;22.10;10.80;;;;;;;17.42;58.32;101817.88;5009293;28;113800;-73
2021/09/04 01:22:33;;;;;;;24.67;10.93;;;;;;;17.39;58.27;101823.44;5008950;28;113791;-73
2021/09/04 01:25:04;;;;;;;21.95;11.15;;;;;;;17.36;58.44;101818.25;5010137;28;124258;-73
2021/09/04 01:27:35;;;;;;;22.08;11.40;;;;;;;17.34;58.44;101820.16;5007191;28;123236;-73
2021/09/04 01:30:04;;;;;;;22.50;11.27;;;;;;;17.32;58.47;101813.06;4975829;28;114822;-73
2021/09/04 01:32:33;;;;;;;22.88;11.15;;;;;;;17.30;58.52;101814.97;4991393;28;115399;-73
2021/09/04 01:35:09;;;;;;;20.73;11.57;;;;;;;17.27;58.54;101825.00;4991594;28;122967;-73
2021/09/04 01:37:37;;;;;;;24.10;11.23;;;;;;;17.25;58.43;101817.06;5006512;28;123423;-73
2021/09/04 01:40:12;;;;;;;23.27;11.18;;;;;;;17.22;58.60;101817.25;4991682;28;114497;-73
2021/09/04 01:42:40;;;;;;;22.15;10.95;;;;;;;17.22;58.52;101813.72;4982849;28;113857;-73
2021/09/04 01:45:08;;;;;;;22.35;10.75;;;;;;;17.20;58.52;101813.78;4991781;28;123046;-73
2021/09/04 01:47:35;;;;;;;22.23;11.68;;;;;;;17.19;58.69;101817.41;5005764;28;124454;-73
2021/09/04 01:50:04;;;;;;;21.80;11.35;;;;;;;17.16;58.65;101806.88;5005699;28;114483;-73
2021/09/04 01:52:31;;;;;;;25.08;11.52;;;;;;;17.13;58.74;101807.91;5007373;28;114058;-73
2021/09/04 01:54:58;;;;;;;22.90;11.18;;;;;;;17.12;58.60;101805.31;5005431;28;124718;-73
2021/09/04 01:57:26;;;;;;;21.38;11.30;;;;;;;17.08;58.71;101801.09;5008417;28;123669;-73
2021/09/04 01:59:53;;;;;;;26.33;11.75;;;;;;;17.05;58.60;101810.19;4991241;28;114068;-73
2021/09/04 02:02:20;;;;;;;24.00;11.02;;;;;;;17.02;58.90;101804.13;5010175;28;114581;-73
2021/09/04 02:04:47;;;;;;;25.58;11.55;;;;;;;16.99;58.81;101798.94;5012566;28;124099;-72
2021/09/04 02:07:15;;;;;;;22.33;11.70;;;;;;;16.98;58.82;101797.22;5008029;28;123691;-73
2021/09/04 02:09:42;;;;;;;24.95;11.60;;;;;;;16.96;58.97;101793.78;5011002;28;114145;-73
2021/09/04 02:12:09;;;;;;;25.77;11.23;;;;;;;16.93;58.96;101790.34;4994865;28;113229;-73
2021/09/04 02:14:36;;;;;;;25.70;11.52;;;;;;;16.91;58.78;101786.88;5013534;28;124073;-74
2021/09/04 02:17:03;;;;;;;21.80;11.55;;;;;;;16.87;58.87;101785.31;4976703;28;123366;-73
2021/09/04 02:19:31;;;;;;;24.08;11.57;;;;;;;16.85;58.96;101781.00;5011994;28;115259;-72
2021/09/04 02:21:59;;;;;;;26.25;11.95;;;;;;;16.83;59.00;101773.06;4984734;28;114907;-73
2021/09/04 02:24:26;;;;;;;30.15;12.18;;;;;;;16.79;59.16;101771.47;4995009;28;123973;-73
2021/09/04 02:26:53;;;;;;;24.83;11.75;;;;;;;16.78;59.28;101772.41;5011667;28;123177;-73
2021/09/04 02:29:21;;;;;;;24.50;11.93;;;;;;;16.76;59.24;101776.97;5009138;28;114476;-73
2021/09/04 02:31:49;;;;;;;26.90;11.88;;;;;;;16.72;59.28;101776.28;5010407;28;113906;-73
2021/09/04 02:34:17;;;;;;;24.42;11.00;;;;;;;16.72;59.47;101775.44;4993855;28;122980;-73
2021/09/04 02:36:44;;;;;;;23.27;11.30;;;;;;;16.73;59.52;101775.34;5012851;28;124702;-73
2021/09/04 02:39:13;;;;;;;23.40;11.98;;;;;;;16.72;59.53;101780.78;4993285;28;117411;-72
2021/09/04 02:41:40;;;;;;;26.48;11.90;;;;;;;16.71;59.46;101784.44;5012066;28;113792;-73
2021/09/04 02:44:07;;;;;;;24.08;11.25;;;;;;;16.70;59.48;101783.53;5012089;28;123813;-72
2021/09/04 02:46:34;;;;;;;25.60;12.02;;;;;;;16.70;59.54;101782.69;5010250;28;124029;-73
2021/09/04 02:49:01;;;;;;;25.55;12.25;;;;;;;16.69;59.71;101781.84;5013103;28;114093;-73
2021/09/04 02:51:29;;;;;;;27.88;12.52;;;;;;;16.69;59.80;101776.47;5011842;28;114833;-72
2021/09/04 02:53:58;;;;;;;24.17;12.27;;;;;;;16.70;59.78;101777.34;4978358;28;123271;-72
2021/09/04 02:56:26;;;;;;;24.67;12.10;;;;;;;16.70;59.85;101782.69;5011667;28;123272;-72
2021/09/04 02:58:55;;;;;;;24.88;11.45;;;;;;;16.71;60.06;101784.44;5009441;28;114481;-72
2021/09/04 03:01:23;;;;;;;27.00;11.90;;;;;;;16.73;59.94;101787.88;5010250;28;114663;-72
2021/09/04 03:03:51;;;;;;;25.02;11.70;;;;;;;16.73;59.96;101787.88;5010194;28;124750;-74
2021/09/04 03:06:18;;;;;;;28.38;12.60;;;;;;;16.74;60.02;101785.13;5010778;28;123876;-73
2021/09/04 03:08:45;;;;;;;27.02;12.23;;;;;;;16.75;60.26;101780.63;5010869;28;115551;-73
2021/09/04 03:11:13;;;;;;;29.27;12.68;;;;;;;16.76;60.33;101782.34;4994726;28;115121;-73
2021/09/04 03:13:41;;;;;;;27.63;12.95;;;;;;;16.76;60.42;101782.34;5010424;28;124667;-73
2021/09/04 03:16:08;;;;;;;25.90;12.20;;;;;;;16.76;60.33;101776.97;5011341;28;124638;-73
2021/09/04 03:18:36;;;;;;;25.27;12.48;;;;;;;16.77;60.34;101783.22;5012059;28;114356;-73
2021/09/04 03:21:03;;;;;;;27.92;12.25;;;;;;;16.80;60.34;101781.25;4978533;28;113986;-73
2021/09/04 03:23:31;;;;;;;27.02;12.55;;;;;;;16.83;60.59;101778.41;4977216;28;123766;-73
2021/09/04 03:25:58;;;;;;;29.42;13.07;;;;;;;16.82;60.60;101776.69;5011329;28;123957;-73
2021/09/04 03:28:25;;;;;;;27.63;12.40;;;;;;;16.82;60.50;101781.13;4993089;28;113452;-73
2021/09/04 03:30:53;;;;;;;28.83;14.02;;;;;;;16.81;60.59;101776.75;4992846;28;112999;-73
2021/09/04 03:33:21;;;;;;;28.27;13.15;;;;;;;16.78;60.58;101780.44;5011257;28;124199;-73
2021/09/04 03:35:50;;;;;;;27.30;13.23;;;;;;;16.78;60.73;101780.44;4992639;28;124136;-73
2021/09/04 03:38:17;;;;;;;26.60;12.85;;;;;;;16.77;60.68;101784.06;4993850;28;114485;-73
2021/09/04 03:40:45;;;;;;;35.05;13.70;;;;;;;16.77;60.83;101784.06;4993346;28;113859;-74
2021/09/04 03:43:27;;;;;;;31.15;12.88;;;;;;;16.77;60.84;101784.06;5011879;28;96967;-64
2021/09/04 03:45:55;;;;;;;26.83;12.25;;;;;;;16.76;60.86;101785.00;5008724;28;124012;-64
2021/09/04 03:48:22;;;;;;;28.02;13.18;;;;;;;16.75;60.90;101780.63;5006374;28;114171;-64
2021/09/04 03:50:51;;;;;;;29.80;13.23;;;;;;;16.76;61.10;101782.34;5003236;28;114193;-64
2021/09/04 03:53:18;;;;;;;28.33;12.95;;;;;;;16.76;61.02;101787.69;5006386;28;124817;-64
2021/09/04 03:55:46;;;;;;;32.13;13.27;;;;;;;16.76;61.02;101785.00;5001658;28;124165;-65
2021/09/04 03:58:13;;;;;;;28.35;12.57;;;;;;;16.76;61.13;101792.19;4995505;28;115378;-64
2021/09/04 04:00:41;;;;;;;29.92;13.25;;;;;;;16.75;61.29;101791.31;5001047;28;115383;-64
2021/09/04 04:03:08;;;;;;;28.92;12.65;;;;;;;16.75;61.18;101791.31;4992746;28;124138;-64
2021/09/04 04:05:36;;;;;;;30.20;13.00;;;;;;;16.75;61.24;101780.63;5001685;28;124042;-64
2021/09/04 04:08:03;;;;;;;28.90;12.90;;;;;;;16.73;61.34;101788.72;4998425;28;114940;-64
2021/09/04 04:10:30;;;;;;;27.15;13.05;;;;;;;16.73;61.12;101787.88;5001143;28;114035;-64
2021/09/04 04:12:57;;;;;;;30.05;12.85;;;;;;;16.72;61.31;101796.84;4996854;28;124432;-64
2021/09/04 04:15:25;;;;;;;29.70;13.18;;;;;;;16.72;61.47;101796.84;5001078;28;124200;-64
2021/09/04 04:17:54;;;;;;;30.27;13.05;;;;;;;16.71;61.44;101792.44;4985705;28;113360;-64
2021/09/04 04:20:22;;;;;;;29.67;12.65;;;;;;;16.69;61.16;101789.84;4981687;28;113183;-64
2021/09/04 04:22:50;;;;;;;27.95;12.43;;;;;;;16.69;61.51;101799.69;5000361;28;124195;-64
2021/09/04 04:25:17;;;;;;;28.52;13.60;;;;;;;16.68;61.70;101805.97;5000483;28;124042;-64
2021/09/04 04:27:45;;;;;;;29.23;12.95;;;;;;;16.68;61.59;101805.97;5005855;28;114627;-67
2021/09/04 04:30:13;;;;;;;28.02;12.80;;;;;;;16.69;61.56;101807.72;4999409;28;114433;-67
2021/09/04 04:32:40;;;;;;;28.08;12.25;;;;;;;16.68;61.52;101803.31;4993728;28;122879;-67
2021/09/04 04:35:09;;;;;;;28.35;12.30;;;;;;;16.66;61.52;101807.88;5005576;28;124273;-67
2021/09/04 04:37:36;;;;;;;28.08;12.52;;;;;;;16.66;61.69;101813.22;5002791;28;114307;-67
2021/09/04 04:40:04;;;;;;;28.50;12.70;;;;;;;16.64;61.54;101809.78;4998400;28;113814;-64
2021/09/04 04:42:32;;;;;;;31.88;12.80;;;;;;;16.63;61.86;101813.38;5003457;28;124395;-64
2021/09/04 04:45:00;;;;;;;29.08;12.40;;;;;;;16.61;61.95;101815.28;5004442;28;124160;-64
2021/09/04 04:47:27;;;;;;;29.80;12.23;;;;;;;16.60;61.72;101816.25;5006209;28;115142;-64
2021/09/04 04:49:54;;;;;;;28.42;11.95;;;;;;;16.59;62.11;101825.22;5008253;28;115126;-64
2021/09/04 04:52:22;;;;;;;30.52;12.75;;;;;;;16.59;61.98;101827.88;5003359;28;124393;-65
2021/09/04 04:54:50;;;;;;;27.77;12.63;;;;;;;16.60;62.17;101825.13;5008652;28;124216;-65
2021/09/04 04:57:17;;;;;;;26.45;12.73;;;;;;;16.63;62.07;101829.44;4996397;28;114387;-65
2021/09/04 04:59:46;;;;;;;30.92;13.02;;;;;;;16.62;62.12;101822.38;4983737;28;113200;-65
2021/09/04 05:02:13;;;;;;;27.60;12.40;;;;;;;16.61;62.38;101815.28;4999339;28;124091;-65
2021/09/04 05:04:41;;;;;;;28.58;13.52;;;;;;;16.59;62.32;101822.53;5000552;28;124181;-65
2021/09/04 05:07:09;;;;;;;27.75;12.50;;;;;;;16.57;62.30;101825.28;5003406;28;114244;-67
2021/09/04 05:09:36;;;;;;;26.52;11.82;;;;;;;16.57;62.35;101821.75;5003053;28;114642;-65
2021/09/04 05:12:05;;;;;;;31.60;13.43;;;;;;;16.59;62.57;101817.19;5008219;28;124387;-65
2021/09/04 05:14:32;;;;;;;31.05;13.25;;;;;;;16.58;62.46;101826.19;4984773;28;124622;-65
2021/09/04 05:17:00;;;;;;;33.47;13.05;;;;;;;16.58;62.58;101820.81;5000236;28;114315;-65
2021/09/04 05:19:30;;;;;;;34.58;13.43;;;;;;;16.59;62.51;101827.88;5001947;28;114290;-65
2021/09/04 05:21:59;;;;;;;35.40;12.65;;;;;;;16.59;62.54;101823.41;4993908;28;124313;-66
2021/09/04 05:24:26;;;;;;;27.73;12.65;;;;;;;16.60;62.65;101826.97;4999136;28;124078;-65
2021/09/04 05:26:53;;;;;;;32.25;12.82;;;;;;;16.61;62.54;101831.34;4994223;28;114978;-65
2021/09/04 05:29:21;;;;;;;34.65;12.30;;;;;;;16.61;62.65;101826.00;4995991;28;114265;-65
2021/09/04 05:31:48;;;;;;;28.23;12.68;;;;;;;16.61;62.65;101828.66;4996498;28;124393;-65
2021/09/04 05:34:15;;;;;;;29.73;11.27;;;;;;;16.61;62.50;101831.34;5004920;28;125441;-65
2021/09/04 05:36:42;;;;;;;28.80;12.10;;;;;;;16.61;62.61;101834.00;4989901;28;114166;-65
2021/09/04 05:39:10;;;;;;;28.98;12.70;;;;;;;16.60;62.64;101840.31;4983056;28;114823;-65
2021/09/04 05:41:37;;;;;;;28.77;12.63;;;;;;;16.60;62.78;101837.66;4986919;28;124948;-65
2021/09/04 05:44:04;;;;;;;29.10;12.82;;;;;;;16.56;62.90;101839.63;5009636;28;124080;-65
2021/09/04 05:46:31;;;;;;;28.45;11.85;;;;;;;16.53;62.78;101835.28;5011937;28;114082;-67
2021/09/04 05:48:58;;;;;;;26.20;11.35;;;;;;;16.53;62.78;101840.63;5000618;28;114106;-65
2021/09/04 05:51:26;;;;;;;25.23;11.07;;;;;;;16.54;62.95;101841.53;4994518;28;123508;-67
2021/09/04 05:53:53;;;;;;;29.40;12.40;;;;;;;16.52;63.06;101840.75;4987470;28;122900;-67
2021/09/04 05:56:20;;;;;;;27.90;11.85;;;;;;;16.51;63.20;101839.84;4987263;28;113264;-65
2021/09/04 05:58:47;;;;;;;28.02;11.75;;;;;;;16.51;63.12;101842.53;5005033;28;114543;-65
2021/09/04 06:01:14;;;;;;;27.35;11.63;;;;;;;16.49;63.23;101847.09;5011058;28;124044;-65
2021/09/04 06:03:41;;;;;;;28.95;12.15;;;;;;;16.50;63.23;101845.28;4994738;28;123099;-65
2021/09/04 06:06:09;;;;;;;29.35;12.25;;;;;;;16.50;63.42;101840.81;5009241;28;114582;-65
2021/09/04 06:08:36;;;;;;;28.35;11.07;;;;;;;16.52;63.46;101838.06;5010050;28;115140;-67
2021/09/04 06:11:03;;;;;;;26.75;11.27;;;;;;;16.52;63.39;101833.59;5003336;28;124357;-65
2021/09/04 06:13:31;;;;;;;27.95;11.75;;;;;;;16.54;63.39;101842.38;4994137;28;123756;-67
2021/09/04 06:15:58;;;;;;;28.98;10.98;;;;;;;16.57;63.50;101838.66;5011014;28;114410;-66
2021/09/04 06:18:25;;;;;;;26.02;10.55;;;;;;;16.59;63.37;101843.94;5004429;28;114113;-66
2021/09/04 06:20:52;;;;;;;22.25;10.98;;;;;;;16.59;63.44;101827.88;4983784;28;123252;-66
2021/09/04 06:23:19;;;;;;;26.17;10.63;;;;;;;16.59;63.41;101843.94;5013233;28;124707;-66
2021/09/04 06:25:46;;;;;;;24.10;10.73;;;;;;;16.58;63.43;101832.38;4998958;28;115116;-65
2021/09/04 06:28:14;;;;;;;26.48;11.38;;;;;;;16.59;63.55;101838.59;5004918;28;115085;-65
2021/09/04 06:30:41;;;;;;;21.23;10.40;;;;;;;16.59;63.57;101841.25;5003125;28;124208;-65
2021/09/04 06:33:08;;;;;;;24.08;10.50;;;;;;;16.57;63.50;101840.47;5002112;28;124079;-65
2021/09/04 06:35:36;;;;;;;24.10;10.85;;;;;;;16.58;63.73;101842.22;5003172;28;113699;-65
2021/09/04 06:38:03;;;;;;;27.23;10.70;;;;;;;16.58;63.80;101847.56;5000218;28;114418;-65
2021/09/04 06:40:31;;;;;;;26.58;12.13;;;;;;;16.57;64.04;101836.00;4994718;28;124049;-65
2021/09/04 06:42:58;;;;;;;25.65;11.10;;;;;;;16.57;64.01;101835.13;4998057;28;125258;-65
2021/09/04 06:45:26;;;;;;;25.88;11.15;;;;;;;16.57;64.03;101835.13;4992986;28;115118;-65
2021/09/04 06:47:53;;;;;;;23.73;10.32;;;;;;;16.58;63.98;101840.41;5004053;28;114013;-65
2021/09/04 06:50:21;;;;;;;26.98;10.43;;;;;;;16.60;64.03;101834.97;5005105;28;124109;-65
2021/09/04 06:52:48;;;;;;;21.75;9.98;;;;;;;16.64;64.04;101847.22;5010795;28;123809;-65
2021/09/04 06:55:15;;;;;;;26.98;11.00;;;;;;;16.69;64.03;101847.84;4996389;28;114211;-65
2021/09/04 06:57:42;;;;;;;22.08;9.93;;;;;;;16.73;63.99;101852.94;5004495;28;114287;-65
2021/09/04 07:00:10;;;;;;;22.35;9.98;;;;;;;16.77;63.83;101855.47;4991360;28;124782;-65
2021/09/04 07:02:37;;;;;;;21.38;10.02;;;;;;;16.80;63.87;101856.16;4990982;28;124739;-65
2021/09/04 07:05:05;;;;;;;23.70;9.93;;;;;;;16.82;63.84;101856.97;5010772;28;114522;-65
2021/09/04 07:07:33;;;;;;;21.90;10.13;;;;;;;16.85;63.83;101864.81;5010880;28;114584;-65
2021/09/04 07:10:00;;;;;;;24.38;10.68;;;;;;;16.87;63.69;101865.56;4989562;28;124746;-65
2021/09/04 07:12:28;;;;;;;21.33;10.60;;;;;;;16.89;63.63;101863.69;5009393;28;123333;-65
2021/09/04 07:14:55;;;;;;;24.38;10.50;;;;;;;16.93;63.60;101875.97;4994315;28;114088;-65
2021/09/04 07:17:22;;;;;;;22.65;10.55;;;;;;;16.95;63.61;101872.31;5005370;28;115181;-65
2021/09/04 07:19:52;;;;;;;22.92;10.15;;;;;;;16.98;63.67;101866.81;4993025;28;124598;-65
2021/09/04 07:22:19;;;;;;;22.33;10.70;;;;;;;17.02;63.62;101868.34;5009059;28;122986;-65
2021/09/04 07:24:46;;;;;;;26.70;10.88;;;;;;;17.05;63.68;101857.50;5010234;28;114665;-65
2021/09/04 07:27:13;;;;;;;24.55;10.85;;;;;;;17.07;63.56;101863.63;5009306;28;114347;-65
2021/09/04 07:29:51;;;;;;;22.67;10.02;;;;;;;17.09;63.42;101864.41;5012928;28;124042;-66
2021/09/04 07:32:53;;;;;;;23.10;10.48;;;;;;;17.10;63.40;101868.78;5003778;28;123893;-66
2021/09/04 07:35:24;;;;;;;27.00;10.68;;;;;;;17.12;63.50;101866.88;4993881;28;114307;-65
2021/09/04 07:37:52;;;;;;;25.52;11.43;;;;;;;17.14;63.52;101873.03;5010333;28;114778;-65
2021/09/04 07:40:19;;;;;;;25.05;11.23;;;;;;;17.15;63.66;101869.41;4975107;28;123648;-65
2021/09/04 07:42:46;;;;;;;28.15;11.63;;;;;;;17.15;63.56;101880.09;5006319;28;124885;-66
2021/09/04 07:45:13;;;;;;;27.40;11.95;;;;;;;17.18;63.46;101879.94;4994275;28;114672;-66
2021/09/04 07:47:41;;;;;;;25.65;11.20;;;;;;;17.20;63.53;101883.41;5007826;28;114802;-65
2021/09/04 07:50:08;;;;;;;29.00;12.10;;;;;;;17.20;63.43;101883.41;4992517;28;124443;-65
2021/09/04 07:52:36;;;;;;;24.77;11.88;;;;;;;17.23;63.54;101875.16;5013060;28;123720;-65
2021/09/04 07:55:03;;;;;;;25.48;11.85;;;;;;;17.26;63.47;101880.38;5004117;28;114658;-65
2021/09/04 07:57:30;;;;;;;25.73;12.23;;;;;;;17.31;63.56;101886.34;5007953;28;113888;-65
2021/09/04 07:59:57;;;;;;;25.50;12.30;;;;;;;17.34;63.35;101882.59;4998737;28;124767;-65
2021/09/04 08:02:25;;;;;;;25.88;11.48;;;;;;;17.36;63.39;101893.22;5000774;28;123991;-65
2021/09/04 08:04:52;;;;;;;24.60;11.43;;;;;;;17.39;63.15;101890.41;5011375;28;115831;-65
2021/09/04 08:07:20;;;;;;;25.48;11.95;;;;;;;17.39;63.18;101887.72;5013230;28;115724;-65
2021/09/04 08:09:48;;;;;;;28.40;12.77;;;;;;;17.36;63.23;101882.53;4991340;28;124270;-65
2021/09/04 08:12:16;;;;;;;25.83;12.10;;;;;;;17.37;63.19;101889.63;5010076;28;123912;-65
2021/09/04 08:14:43;;;;;;;25.50;12.05;;;;;;;17.40;63.38;101878.72;5010361;28;115066;-65
2021/09/04 08:17:10;;;;;;;24.33;11.90;;;;;;;17.43;63.26;101878.53;5009357;28;114397;-65
2021/09/04 08:19:37;;;;;;;27.20;12.18;;;;;;;17.46;63.11;101871.19;5003923;28;124051;-66
2021/09/04 08:22:04;;;;;;;29.63;13.20;;;;;;;17.51;63.14;101878.97;4997905;28;123783;-65
2021/09/04 08:24:32;;;;;;;27.85;13.00;;;;;;;17.55;63.07;101880.50;4993809;28;113039;-65
2021/09/04 08:26:59;;;;;;;26.27;12.13;;;;;;;17.59;62.98;101879.38;5009296;28;114253;-65
2021/09/04 08:29:26;;;;;;;26.70;11.90;;;;;;;17.63;63.03;101880.94;4991789;28;122856;-65
2021/09/04 08:31:54;;;;;;;25.30;12.77;;;;;;;17.67;63.14;101885.16;4990236;28;123977;-65
2021/09/04 08:34:21;;;;;;;27.27;12.73;;;;;;;17.70;62.99;101884.97;5010512;28;113983;-65
2021/09/04 08:36:49;;;;;;;26.02;12.55;;;;;;;17.73;62.89;101883.09;5011596;28;113992;-65
2021/09/04 08:39:16;;;;;;;26.60;12.55;;;;;;;17.73;62.89;101891.97;5007909;28;124014;-65
2021/09/04 08:41:44;;;;;;;24.73;12.43;;;;;;;17.73;62.94;101886.63;5010479;28;123956;-65
2021/09/04 08:44:11;;;;;;;24.27;11.57;;;;;;;17.75;62.77;101905.28;5010528;28;114998;-65
2021/09/04 08:46:40;;;;;;;20.73;11.82;;;;;;;17.78;62.81;101910.44;5001094;28;114332;-65
2021/09/04 08:49:15;;;;;;;25.75;11.80;;;;;;;17.82;62.65;101907.53;4999580;28;124744;-65
2021/09/04 08:51:46;;;;;;;23.60;12.80;;;;;;;17.86;62.54;101902.88;5016268;22;123721;-65
2021/09/04 08:54:14;;;;;;;22.98;12.00;;;;;;;17.90;62.57;101907.09;4999991;28;115361;-64
2021/09/04 08:56:49;;;;;;;27.23;12.63;;;;;;;17.92;62.29;101901.66;4978284;28;114648;-65
2021/09/04 08:59:16;;;;;;;27.15;13.20;;;;;;;17.97;62.28;101900.44;4978774;28;123826;-65
2021/09/04 09:01:45;;;;;;;23.55;12.25;;;;;;;18.01;62.34;101907.31;5004622;28;123966;-67
2021/09/04 09:04:16;;;;;;;24.33;12.45;;;;;;;18.04;62.08;101901.75;4995850;28;114823;-66
2021/09/04 09:06:45;;;;;;;23.33;12.45;;;;;;;18.07;62.11;101901.59;4993764;28;113241;-66
2021/09/04 09:09:23;;;;;;;23.35;12.05;;;;;;;18.12;62.15;101887.94;4996442;28;125325;-65
2021/09/04 09:11:55;;;;;;;25.00;12.30;;;;;;;18.17;62.10;101888.50;4997763;28;124335;-65
2021/09/04 09:14:24;;;;;;;23.10;11.82;;;;;;;18.21;61.97;101886.50;5002293;28;114620;-65
2021/09/04 09:16:55;;;;;;;24.08;12.02;;;;;;;18.25;61.75;101883.53;5011786;28;113930;-65
2021/09/04 09:19:26;;;;;;;24.90;12.95;;;;;;;18.32;61.80;101889.38;4980783;28;124811;-65
2021/09/04 09:21:56;;;;;;;24.13;11.60;;;;;;;18.36;61.67;101890.91;4975196;28;124697;-65
2021/09/04 09:24:26;;;;;;;20.25;11.73;;;;;;;18.43;61.66;101883.38;5002752;28;114271;-65
2021/09/04 09:27:00;;;;;;;23.80;12.32;;;;;;;18.47;61.48;101888.44;4986907;28;114173;-66
2021/09/04 09:29:32;;;;;;;22.60;12.38;;;;;;;18.53;61.47;101886.34;4972581;28;123706;-65
2021/09/04 09:32:06;;;;;;;22.73;12.27;;;;;;;18.57;61.25;101894.13;5003985;28;124765;-65
2021/09/04 09:34:38;;;;;;;22.27;11.38;;;;;;;18.64;61.24;101887.38;5006263;28;114494;-65
2021/09/04 09:37:07;;;;;;;23.48;12.57;;;;;;;18.70;61.31;101888.81;4991960;28;114398;-65
2021/09/04 09:39:36;;;;;;;21.08;12.55;;;;;;;18.75;60.95;101881.34;4975896;28;123319;-65
2021/09/04 09:42:14;;;;;;;22.52;11.95;;;;;;;18.79;61.07;101882.88;4975600;28;123730;-65
2021/09/04 09:44:41;;;;;;;21.20;11.68;;;;;;;18.83;60.67;101889.81;4980741;28;116453;-67
2021/09/04 09:47:11;;;;;;;22.65;11.85;;;;;;;18.85;60.59;101882.56;4988751;28;115053;-67
2021/09/04 09:49:43;;;;;;;24.00;12.77;;;;;;;18.88;60.36;101886.00;4973287;28;123132;-67
2021/09/04 09:52:13;;;;;;;22.67;12.43;;;;;;;18.90;60.48;101884.94;4983759;28;124285;-67
2021/09/04 09:54:41;;;;;;;22.45;12.27;;;;;;;18.96;60.36;101894.41;4981318;28;114595;-66
2021/09/04 09:57:11;;;;;;;19.98;12.23;;;;;;;19.02;60.13;101888.66;4973611;28;114350;-67
2021/09/04 09:59:38;;;;;;;21.83;12.27;;;;;;;19.08;60.00;101888.28;4975225;28;123788;-67
2021/09/04 10:02:07;;;;;;;21.42;12.73;;;;;;;19.12;59.94;101892.47;4985242;28;123940;-66
2021/09/04 10:04:37;;;;;;;21.05;12.93;;;;;;;19.16;60.01;101888.63;4975520;28;114375;-66
2021/09/04 10:07:06;;;;;;;23.05;12.70;;;;;;;19.21;59.85;101894.56;4972795;28;114670;-66
2021/09/04 10:09:35;;;;;;;19.77;11.88;;;;;;;19.26;59.86;101884.38;4976203;28;124789;-67
2021/09/04 10:12:03;;;;;;;23.00;12.27;;;;;;;19.34;59.76;101886.56;4982712;28;123790;-66
2021/09/04 10:14:33;;;;;;;21.52;12.05;;;;;;;19.41;59.68;101889.72;4984632;28;114636;-65
2021/09/04 10:17:11;;;;;;;22.17;12.05;;;;;;;19.47;59.52;101889.31;4973075;28;114311;-66
2021/09/04 10:19:52;;;;;;;20.58;12.05;;;;;;;19.51;59.27;101885.44;4959213;28;123251;-66
2021/09/04 10:22:19;;;;;;;20.67;12.18;;;;;;;19.54;59.05;101884.41;4985812;28;123438;-66
2021/09/04 10:24:49;;;;;;;22.00;13.05;;;;;;;19.58;59.20;101884.06;4977710;28;114461;-66
2021/09/04 10:27:34;;;;;;;22.50;12.55;;;;;;;19.65;59.15;101882.72;4984236;28;113895;-64
2021/09/04 10:30:25;;;;;;;23.42;13.23;;;;;;;19.73;59.10;101881.38;4981564;28;124035;-65
2021/09/04 10:33:06;;;;;;;23.20;13.20;;;;;;;19.82;58.98;101878.91;4978536;28;124007;-66
2021/09/04 10:35:48;;;;;;;24.42;14.20;;;;;;;19.90;58.60;101877.53;4990324;28;115621;-65
2021/09/04 10:38:18;;;;;;;23.27;12.65;;;;;;;19.96;58.67;101875.28;4984097;28;115718;-65
2021/09/04 10:40:51;;;;;;;23.73;12.95;;;;;;;20.03;58.46;101875.72;4978134;28;123852;-65
2021/09/04 10:43:20;;;;;;;23.48;13.10;;;;;;;20.09;58.39;101874.44;4975593;28;123005;-65
2021/09/04 10:45:50;;;;;;;27.50;14.77;;;;;;;20.14;58.16;101867.78;4986570;28;113188;-65
2021/09/04 10:48:21;;;;;;;23.92;13.95;;;;;;;20.18;58.00;101868.44;4964653;28;113524;-65
2021/09/04 10:51:10;;;;;;;24.75;13.63;;;;;;;20.22;58.29;101870.78;4984235;28;123854;-65
2021/09/04 10:53:44;;;;;;;27.17;14.00;;;;;;;20.34;57.95;101874.47;4964091;28;123316;-65
2021/09/04 10:56:21;;;;;;;22.13;13.38;;;;;;;20.41;57.93;101859.59;4983586;28;114477;-65
2021/09/04 10:58:53;;;;;;;26.63;14.40;;;;;;;20.48;57.71;101875.34;4964538;28;113032;-65
2021/09/04 11:01:26;;;;;;;24.98;14.10;;;;;;;20.53;57.68;101873.16;4975422;28;123996;-65
2021/09/04 11:03:55;;;;;;;25.38;14.07;;;;;;;20.61;57.56;101862.75;4968269;28;122877;-65
2021/09/04 11:06:25;;;;;;;26.17;14.48;;;;;;;20.69;57.36;101852.28;4982416;28;114797;-66
2021/09/04 11:08:53;;;;;;;24.58;14.73;;;;;;;20.75;57.17;101862.63;4986347;28;114281;-65